Darlington, New Jersey
Current Conditions -  °F | °C
As of 12:51 AM on Wednesday 22 Oct 2014 (Local Time) from KTEB Reporting Station
Overcast Overcast  
Wind Chill: 56°   Ceiling: 2900
Heat Index: 56°   Visibility: 10mi
Dew Point: 51°   Wind: 3mph
Humidity: 84%   Direction: NA
Pressure: 29.9"   Gusts: NA
Location:  41.0594°N, 74.1457°W
Report Text: KTEB 220451Z VRB03KT 10SM SCT023 BKN029 OVC034 13/11 A2990 RMK AO2 SLP124 T01330106 402060106
Loading
Personal Weather Stations






























Interactive Weather Map New forecast layout! Learn more

10-Day Weather Forecast

Advertisements
Track Severe Weather on mobile